METAR AND TAF INFORMATION
METAR FOR CYCD
ADDS - METARS form results

(0048 UTC 26 January 2020)
Data provider http://aviationweather.gov/metar/data/
 
METAR text: CYCD 260039Z 09003KT 040V110 2SM -DZ BR OVC004 07/07 A3000 RMK SF8 CIG RAG SLP161
Conditions at: CYCD (NANAIMO AIRPORT , BC, CA) observed 0039 UTC 26 January 2020
Temperature: 7.0°C (45°F)
Dewpoint: 7.0°C (45°F) [RH = 100%]
Pressure (altimeter): 30.00 inches Hg (1016.0 mb)
[Sea-level pressure: 1016.1 mb]
Winds: from the E (90 degrees) at 3 MPH (3 knots; 1.5 m/s)
Visibility: 2.00 miles (3.22 km)
Ceiling: 400 feet AGL
Clouds: overcast cloud deck at 400 feet AGL
Weather: -DZ BR  (light drizzle, mist)

METAR text: CYCD 260000Z 07004KT 050V110 2SM BR OVC005 07/07 A3002 RMK SF8 CIG RAG SLP166
Conditions at: CYCD (NANAIMO AIRPORT , BC, CA) observed 0000 UTC 26 January 2020
Temperature: 7.0°C (45°F)
Dewpoint: 7.0°C (45°F) [RH = 100%]
Pressure (altimeter): 30.02 inches Hg (1016.7 mb)
[Sea-level pressure: 1016.6 mb]
Winds: from the ENE (70 degrees) at 5 MPH (4 knots; 2.1 m/s)
Visibility: 2.00 miles (3.22 km)
Ceiling: 500 feet AGL
Clouds: overcast cloud deck at 500 feet AGL
Weather: BR  (mist)

Forecast for: CYCD (NANAIMO AIRPORT , BC, CA)
Text: TAF CYCD 252344Z 2600/2605 13005KT 2SM -DZ BR OVC004
Forecast period: 0000 to 0500 UTC 26 January 2020
Forecast type: FROM: standard forecast or significant change
Winds: from the SE (130 degrees) at 6 MPH (5 knots; 2.6 m/s)
Visibility: 2.00 miles (3.22 km)
Ceiling: 400 feet AGL
Clouds: overcast cloud deck at 400 feet AGL
Weather: -DZ BR  (light drizzle, mist)
Text: TEMPO 2600/2605 6SM BR SCT004 OVC010 RMK NXT FCST WILL BE ISSUED AT 261545Z
Forecast period: 0000 to 0500 UTC 26 January 2020
Forecast type: TEMPORARY: The following changes expected for less than half the time period
Visibility: 6 miles (10 km)
Ceiling: 1000 feet AGL
Clouds: scattered clouds at 400 feet AGL
overcast cloud deck at 1000 feet AGL
Weather: BR  (mist)

 AIRPORT MAP

 RUNWAY INFORMATION
Runway 16 Runway length 6602 ft Runway width 150 ft
Runway elevation 75 ft Runway displaced threshold 197 ft Runway heading 181
Runway 34 Runway length 6602 ft Runway width 150 ft
Runway elevation 92 ft Runway displaced threshold 1002 ft Runway heading 1

 AIRPORT FREQUENCIES
Type APP Name VICTORIA T Frequency 133.95 MHZ
Type ATF Name ATF Frequency 122.1 MHZ
Type ATIS Name Nanaimo AT Frequency 128.425 MHZ
Type FSS Name RDO Frequency 122.1 MHZ
Type RCO Name PACIFIC RD Frequency 126.7 MHZ

 AIRPORT NEAR NAVIGATION AIDS
Type DME Name Nanaimo Frequency 111450 KHZ
Type NDB Name Nanaimo Frequency 251 KHZ



Powered by Virtual Airlines Manager [v2.6.2]